Terminal Aerodrome Forecast
Issued by NWS

Home | Current Version | Previous Version | Text Only | Print | Product List | Glossary On
Versions: 1 2 3 4 5 6 7 8 9 10 11 12
000
FTUS46 KSGX 231124
TAFONT
TAF
KONT 231124Z 2312/2418 VRB03KT P6SM BKN250
     FM232000 25010G18KT P6SM SCT250
     FM240200 25007KT P6SM SCT250
     FM240500 VRB05KT P6SM FEW015 SCT250
     FM240800 VRB05KT P6SM BKN012
     FM241600 VRB05KT P6SM SCT020=

USA.gov is the U.S. government's official web portal to all federal, state and local government web resources and services.